sensor_id;sensor_type;location;lat;lon;timestamp;temperature;humidity
45313;SHT31;68267;51.540;5.854;2023-05-10T00:05:46;13.4;93.8
45313;SHT31;68267;51.540;5.854;2023-05-10T00:19:05;13.3;94.2
45313;SHT31;68267;51.540;5.854;2023-05-10T00:32:25;13.3;94.2
45313;SHT31;68267;51.540;5.854;2023-05-10T00:45:45;13.2;94.1
45313;SHT31;68267;51.540;5.854;2023-05-10T00:59:05;13.2;93.8
45313;SHT31;68267;51.540;5.854;2023-05-10T01:12:24;13.1;94.2
45313;SHT31;68267;51.540;5.854;2023-05-10T01:25:44;13.0;94.4
45313;SHT31;68267;51.540;5.854;2023-05-10T01:39:04;13.1;93.9
45313;SHT31;68267;51.540;5.854;2023-05-10T01:52:24;13.2;93.7
45313;SHT31;68267;51.540;5.854;2023-05-10T02:05:44;13.1;94.1
45313;SHT31;68267;51.540;5.854;2023-05-10T02:19:03;13.0;94.8
45313;SHT31;68267;51.540;5.854;2023-05-10T02:32:23;12.9;95.5
45313;SHT31;68267;51.540;5.854;2023-05-10T02:45:43;13.0;95.8
45313;SHT31;68267;51.540;5.854;2023-05-10T02:59:02;13.2;95.2
45313;SHT31;68267;51.540;5.854;2023-05-10T03:12:22;13.3;94.9
45313;SHT31;68267;51.540;5.854;2023-05-10T03:25:41;13.3;94.6
45313;SHT31;68267;51.540;5.854;2023-05-10T03:39:01;13.1;94.2
45313;SHT31;68267;51.540;5.854;2023-05-10T03:52:21;13.1;93.6
45313;SHT31;68267;51.540;5.854;2023-05-10T04:05:40;13.1;93.6
45313;SHT31;68267;51.540;5.854;2023-05-10T04:19:00;13.3;93.4
45313;SHT31;68267;51.540;5.854;2023-05-10T04:32:20;13.5;92.7
45313;SHT31;68267;51.540;5.854;2023-05-10T04:45:39;13.4;93.1
45313;SHT31;68267;51.540;5.854;2023-05-10T04:58:59;13.1;93.9
45313;SHT31;68267;51.540;5.854;2023-05-10T05:12:18;13.1;94.5
45313;SHT31;68267;51.540;5.854;2023-05-10T05:25:38;13.0;95.0
45313;SHT31;68267;51.540;5.854;2023-05-10T05:38:58;12.8;94.6
45313;SHT31;68267;51.540;5.854;2023-05-10T05:52:18;12.6;93.9
45313;SHT31;68267;51.540;5.854;2023-05-10T06:05:37;12.7;93.2
45313;SHT31;68267;51.540;5.854;2023-05-10T06:18:57;12.8;92.8
45313;SHT31;68267;51.540;5.854;2023-05-10T06:32:17;12.8;91.0
45313;SHT31;68267;51.540;5.854;2023-05-10T06:45:36;13.0;91.3
45313;SHT31;68267;51.540;5.854;2023-05-10T06:58:56;13.1;90.8
45313;SHT31;68267;51.540;5.854;2023-05-10T07:12:16;13.2;90.4
45313;SHT31;68267;51.540;5.854;2023-05-10T07:25:36;13.3;90.5
45313;SHT31;68267;51.540;5.854;2023-05-10T07:38:55;13.3;89.4
45313;SHT31;68267;51.540;5.854;2023-05-10T07:52:15;13.4;90.2
45313;SHT31;68267;51.540;5.854;2023-05-10T08:05:35;13.5;90.2
45313;SHT31;68267;51.540;5.854;2023-05-10T08:18:55;13.6;90.1
45313;SHT31;68267;51.540;5.854;2023-05-10T08:32:15;13.5;90.8
45313;SHT31;68267;51.540;5.854;2023-05-10T08:45:34;13.4;91.1
45313;SHT31;68267;51.540;5.854;2023-05-10T08:58:54;13.5;91.1
45313;SHT31;68267;51.540;5.854;2023-05-10T09:12:14;13.5;91.2
45313;SHT31;68267;51.540;5.854;2023-05-10T09:25:33;13.4;90.8
45313;SHT31;68267;51.540;5.854;2023-05-10T09:38:53;13.8;90.4
45313;SHT31;68267;51.540;5.854;2023-05-10T09:52:12;13.8;87.5
45313;SHT31;68267;51.540;5.854;2023-05-10T10:05:32;14.0;86.9
45313;SHT31;68267;51.540;5.854;2023-05-10T10:18:52;14.5;85.6
45313;SHT31;68267;51.540;5.854;2023-05-10T10:32:12;14.9;83.1
45313;SHT31;68267;51.540;5.854;2023-05-10T10:45:32;15.6;79.4
45313;SHT31;68267;51.540;5.854;2023-05-10T10:58:51;16.2;76.7
45313;SHT31;68267;51.540;5.854;2023-05-10T11:12:11;15.5;80.4
45313;SHT31;68267;51.540;5.854;2023-05-10T11:25:31;15.3;82.0
45313;SHT31;68267;51.540;5.854;2023-05-10T11:38:51;15.7;81.6
45313;SHT31;68267;51.540;5.854;2023-05-10T11:52:10;16.5;78.7
45313;SHT31;68267;51.540;5.854;2023-05-10T12:05:30;17.1;74.4
45313;SHT31;68267;51.540;5.854;2023-05-10T12:18:50;15.4;80.5
45313;SHT31;68267;51.540;5.854;2023-05-10T12:32:10;14.3;90.0
45313;SHT31;68267;51.540;5.854;2023-05-10T12:45:29;15.3;88.6
45313;SHT31;68267;51.540;5.854;2023-05-10T12:58:49;15.2;84.4
45313;SHT31;68267;51.540;5.854;2023-05-10T13:12:09;14.3;86.3
45313;SHT31;68267;51.540;5.854;2023-05-10T13:25:29;14.0;87.1
45313;SHT31;68267;51.540;5.854;2023-05-10T13:38:49;14.2;89.1
45313;SHT31;68267;51.540;5.854;2023-05-10T13:52:08;14.9;87.8
45313;SHT31;68267;51.540;5.854;2023-05-10T14:05:28;15.7;86.3
45313;SHT31;68267;51.540;5.854;2023-05-10T14:18:48;16.6;78.9
45313;SHT31;68267;51.540;5.854;2023-05-10T14:32:08;16.2;80.1
45313;SHT31;68267;51.540;5.854;2023-05-10T14:45:27;15.8;83.3
45313;SHT31;68267;51.540;5.854;2023-05-10T14:58:47;15.3;83.6
45313;SHT31;68267;51.540;5.854;2023-05-10T15:12:07;15.2;84.7
45313;SHT31;68267;51.540;5.854;2023-05-10T15:25:27;15.0;86.9
45313;SHT31;68267;51.540;5.854;2023-05-10T15:38:47;14.6;88.0
45313;SHT31;68267;51.540;5.854;2023-05-10T15:52:06;14.7;89.2
45313;SHT31;68267;51.540;5.854;2023-05-10T16:05:26;14.9;89.3
45313;SHT31;68267;51.540;5.854;2023-05-10T16:18:46;15.0;87.5
45313;SHT31;68267;51.540;5.854;2023-05-10T16:32:05;15.0;87.2
45313;SHT31;68267;51.540;5.854;2023-05-10T16:45:25;15.1;87.9
45313;SHT31;68267;51.540;5.854;2023-05-10T16:58:45;14.9;88.7
45313;SHT31;68267;51.540;5.854;2023-05-10T17:12:04;15.0;88.7
45313;SHT31;68267;51.540;5.854;2023-05-10T17:25:24;15.1;88.9
45313;SHT31;68267;51.540;5.854;2023-05-10T17:38:44;15.1;88.8
45313;SHT31;68267;51.540;5.854;2023-05-10T17:52:03;14.8;88.8
45313;SHT31;68267;51.540;5.854;2023-05-10T18:05:23;14.1;89.9
45313;SHT31;68267;51.540;5.854;2023-05-10T18:18:42;14.0;88.1
45313;SHT31;68267;51.540;5.854;2023-05-10T18:32:02;14.2;86.2
45313;SHT31;68267;51.540;5.854;2023-05-10T18:45:22;14.3;85.6
45313;SHT31;68267;51.540;5.854;2023-05-10T18:58:41;14.0;87.7
45313;SHT31;68267;51.540;5.854;2023-05-10T19:12:01;13.9;88.0
45313;SHT31;68267;51.540;5.854;2023-05-10T19:25:20;13.7;88.7
45313;SHT31;68267;51.540;5.854;2023-05-10T19:38:40;13.6;89.4
45313;SHT31;68267;51.540;5.854;2023-05-10T19:52:00;13.4;90.4
45313;SHT31;68267;51.540;5.854;2023-05-10T20:05:19;13.3;90.7
45313;SHT31;68267;51.540;5.854;2023-05-10T20:18:39;13.5;90.8
45313;SHT31;68267;51.540;5.854;2023-05-10T20:31:59;13.5;91.1
45313;SHT31;68267;51.540;5.854;2023-05-10T20:45:18;13.6;90.7
45313;SHT31;68267;51.540;5.854;2023-05-10T20:58:38;13.5;90.7
45313;SHT31;68267;51.540;5.854;2023-05-10T21:11:58;13.5;91.1
45313;SHT31;68267;51.540;5.854;2023-05-10T21:25:18;13.2;92.0
45313;SHT31;68267;51.540;5.854;2023-05-10T21:38:38;13.2;92.1
45313;SHT31;68267;51.540;5.854;2023-05-10T21:51:57;13.3;91.8
45313;SHT31;68267;51.540;5.854;2023-05-10T22:05:17;13.2;92.1
45313;SHT31;68267;51.540;5.854;2023-05-10T22:18:37;13.3;92.1
45313;SHT31;68267;51.540;5.854;2023-05-10T22:31:56;13.3;92.4
45313;SHT31;68267;51.540;5.854;2023-05-10T22:45:16;13.3;92.4
45313;SHT31;68267;51.540;5.854;2023-05-10T22:58:35;13.2;92.2
45313;SHT31;68267;51.540;5.854;2023-05-10T23:11:55;13.1;92.3
45313;SHT31;68267;51.540;5.854;2023-05-10T23:25:15;13.0;93.0
45313;SHT31;68267;51.540;5.854;2023-05-10T23:38:34;13.0;92.6
45313;SHT31;68267;51.540;5.854;2023-05-10T23:51:54;12.9;93.0
